sensor_id;sensor_type;location;lat;lon;timestamp;P1;durP1;ratioP1;P2;durP2;ratioP2
26620;SDS011;14253;44.840;10.444;2023-03-23T00:01:57;12.77;;;9.40;;
26620;SDS011;14253;44.840;10.444;2023-03-23T00:04:23;13.13;;;9.38;;
26620;SDS011;14253;44.840;10.444;2023-03-23T00:06:51;14.82;;;9.23;;
26620;SDS011;14253;44.840;10.444;2023-03-23T00:09:17;13.27;;;7.65;;
26620;SDS011;14253;44.840;10.444;2023-03-23T00:11:48;13.70;;;9.45;;
26620;SDS011;14253;44.840;10.444;2023-03-23T00:14:16;10.95;;;8.02;;
26620;SDS011;14253;44.840;10.444;2023-03-23T00:19:14;14.40;;;8.80;;
26620;SDS011;14253;44.840;10.444;2023-03-23T00:21:41;11.32;;;7.97;;
26620;SDS011;14253;44.840;10.444;2023-03-23T00:26:38;13.75;;;9.10;;
26620;SDS011;14253;44.840;10.444;2023-03-23T00:29:06;11.75;;;8.52;;
26620;SDS011;14253;44.840;10.444;2023-03-23T00:31:38;12.52;;;7.90;;
26620;SDS011;14253;44.840;10.444;2023-03-23T00:34:05;11.68;;;8.35;;
26620;SDS011;14253;44.840;10.444;2023-03-23T00:36:32;13.15;;;8.18;;
26620;SDS011;14253;44.840;10.444;2023-03-23T00:39:02;11.38;;;8.00;;
26620;SDS011;14253;44.840;10.444;2023-03-23T00:41:29;14.60;;;8.70;;
26620;SDS011;14253;44.840;10.444;2023-03-23T00:43:56;10.27;;;6.85;;
26620;SDS011;14253;44.840;10.444;2023-03-23T00:46:26;12.43;;;7.10;;
26620;SDS011;14253;44.840;10.444;2023-03-23T00:48:53;11.07;;;6.13;;
26620;SDS011;14253;44.840;10.444;2023-03-23T00:51:20;9.98;;;6.32;;
26620;SDS011;14253;44.840;10.444;2023-03-23T00:53:46;10.13;;;6.03;;
26620;SDS011;14253;44.840;10.444;2023-03-23T00:56:12;9.43;;;5.50;;
26620;SDS011;14253;44.840;10.444;2023-03-23T00:58:39;8.15;;;5.60;;
26620;SDS011;14253;44.840;10.444;2023-03-23T01:01:05;7.88;;;5.55;;
26620;SDS011;14253;44.840;10.444;2023-03-23T01:03:32;10.23;;;6.32;;
26620;SDS011;14253;44.840;10.444;2023-03-23T01:06:09;9.95;;;6.65;;
26620;SDS011;14253;44.840;10.444;2023-03-23T01:08:41;9.65;;;6.57;;
26620;SDS011;14253;44.840;10.444;2023-03-23T01:11:12;9.60;;;6.55;;
26620;SDS011;14253;44.840;10.444;2023-03-23T01:13:40;10.38;;;6.40;;
26620;SDS011;14253;44.840;10.444;2023-03-23T01:16:07;7.88;;;5.97;;
26620;SDS011;14253;44.840;10.444;2023-03-23T01:18:34;9.13;;;6.13;;
26620;SDS011;14253;44.840;10.444;2023-03-23T01:21:07;10.13;;;5.32;;
26620;SDS011;14253;44.840;10.444;2023-03-23T01:23:36;7.05;;;5.43;;
26620;SDS011;14253;44.840;10.444;2023-03-23T01:26:08;8.93;;;6.07;;
26620;SDS011;14253;44.840;10.444;2023-03-23T01:28:37;8.13;;;5.07;;
26620;SDS011;14253;44.840;10.444;2023-03-23T01:31:06;6.93;;;5.20;;
26620;SDS011;14253;44.840;10.444;2023-03-23T01:33:35;9.40;;;5.15;;
26620;SDS011;14253;44.840;10.444;2023-03-23T01:36:05;6.80;;;4.65;;
26620;SDS011;14253;44.840;10.444;2023-03-23T01:38:33;7.43;;;5.22;;
26620;SDS011;14253;44.840;10.444;2023-03-23T01:41:00;12.23;;;6.18;;
26620;SDS011;14253;44.840;10.444;2023-03-23T01:43:27;7.43;;;5.60;;
26620;SDS011;14253;44.840;10.444;2023-03-23T01:45:53;6.45;;;4.43;;
26620;SDS011;14253;44.840;10.444;2023-03-23T01:50:53;6.75;;;5.13;;
26620;SDS011;14253;44.840;10.444;2023-03-23T01:53:38;7.88;;;5.30;;
26620;SDS011;14253;44.840;10.444;2023-03-23T01:56:10;7.10;;;4.97;;
26620;SDS011;14253;44.840;10.444;2023-03-23T01:58:39;10.85;;;6.63;;
26620;SDS011;14253;44.840;10.444;2023-03-23T02:01:08;6.97;;;5.38;;
26620;SDS011;14253;44.840;10.444;2023-03-23T02:03:38;7.17;;;4.80;;
26620;SDS011;14253;44.840;10.444;2023-03-23T02:08:41;8.65;;;5.18;;
26620;SDS011;14253;44.840;10.444;2023-03-23T02:11:15;8.18;;;5.43;;
26620;SDS011;14253;44.840;10.444;2023-03-23T02:13:43;11.00;;;5.22;;
26620;SDS011;14253;44.840;10.444;2023-03-23T02:33:28;9.27;;;5.75;;
26620;SDS011;14253;44.840;10.444;2023-03-23T02:38:57;8.57;;;5.57;;
26620;SDS011;14253;44.840;10.444;2023-03-23T02:41:36;9.98;;;5.68;;
26620;SDS011;14253;44.840;10.444;2023-03-23T02:44:08;9.10;;;4.68;;
26620;SDS011;14253;44.840;10.444;2023-03-23T02:46:36;7.47;;;3.63;;
26620;SDS011;14253;44.840;10.444;2023-03-23T02:49:03;8.52;;;4.80;;
26620;SDS011;14253;44.840;10.444;2023-03-23T02:51:32;8.60;;;4.82;;
26620;SDS011;14253;44.840;10.444;2023-03-23T02:53:59;6.95;;;4.80;;
26620;SDS011;14253;44.840;10.444;2023-03-23T02:56:26;7.05;;;4.47;;
26620;SDS011;14253;44.840;10.444;2023-03-23T02:58:55;7.13;;;4.70;;
26620;SDS011;14253;44.840;10.444;2023-03-23T03:03:58;6.25;;;4.57;;
26620;SDS011;14253;44.840;10.444;2023-03-23T03:12:04;9.68;;;4.10;;
26620;SDS011;14253;44.840;10.444;2023-03-23T03:14:37;8.20;;;4.82;;
26620;SDS011;14253;44.840;10.444;2023-03-23T03:17:13;6.22;;;3.90;;
26620;SDS011;14253;44.840;10.444;2023-03-23T03:19:48;7.38;;;3.90;;
26620;SDS011;14253;44.840;10.444;2023-03-23T03:22:16;10.30;;;4.43;;
26620;SDS011;14253;44.840;10.444;2023-03-23T03:24:46;7.65;;;4.57;;
26620;SDS011;14253;44.840;10.444;2023-03-23T03:27:15;6.68;;;4.07;;
26620;SDS011;14253;44.840;10.444;2023-03-23T03:30:06;7.18;;;4.07;;
26620;SDS011;14253;44.840;10.444;2023-03-23T03:32:47;6.93;;;4.75;;
26620;SDS011;14253;44.840;10.444;2023-03-23T03:35:16;7.75;;;3.78;;
26620;SDS011;14253;44.840;10.444;2023-03-23T03:37:43;6.15;;;3.92;;
26620;SDS011;14253;44.840;10.444;2023-03-23T03:40:11;5.25;;;3.45;;
26620;SDS011;14253;44.840;10.444;2023-03-23T03:42:43;5.38;;;3.83;;
26620;SDS011;14253;44.840;10.444;2023-03-23T03:45:14;5.80;;;3.92;;
26620;SDS011;14253;44.840;10.444;2023-03-23T03:47:42;6.18;;;3.92;;
26620;SDS011;14253;44.840;10.444;2023-03-23T03:50:09;6.55;;;4.60;;
26620;SDS011;14253;44.840;10.444;2023-03-23T03:52:36;7.78;;;4.15;;
26620;SDS011;14253;44.840;10.444;2023-03-23T03:55:04;6.95;;;4.85;;
26620;SDS011;14253;44.840;10.444;2023-03-23T03:57:32;9.48;;;4.68;;
26620;SDS011;14253;44.840;10.444;2023-03-23T04:00:25;5.85;;;4.32;;
26620;SDS011;14253;44.840;10.444;2023-03-23T04:02:51;8.40;;;4.90;;
26620;SDS011;14253;44.840;10.444;2023-03-23T04:05:46;7.57;;;4.55;;
26620;SDS011;14253;44.840;10.444;2023-03-23T04:08:12;8.95;;;4.45;;
26620;SDS011;14253;44.840;10.444;2023-03-23T04:10:39;6.30;;;4.60;;
26620;SDS011;14253;44.840;10.444;2023-03-23T04:13:07;7.70;;;4.68;;
26620;SDS011;14253;44.840;10.444;2023-03-23T04:16:08;8.45;;;4.95;;
26620;SDS011;14253;44.840;10.444;2023-03-23T04:18:34;9.82;;;5.20;;
26620;SDS011;14253;44.840;10.444;2023-03-23T04:21:03;6.90;;;5.35;;
26620;SDS011;14253;44.840;10.444;2023-03-23T04:23:30;8.30;;;5.15;;
26620;SDS011;14253;44.840;10.444;2023-03-23T04:26:01;7.35;;;4.75;;
26620;SDS011;14253;44.840;10.444;2023-03-23T04:28:34;7.15;;;4.70;;
26620;SDS011;14253;44.840;10.444;2023-03-23T04:31:19;8.85;;;5.68;;
26620;SDS011;14253;44.840;10.444;2023-03-23T04:36:23;14.93;;;4.60;;
26620;SDS011;14253;44.840;10.444;2023-03-23T04:38:57;8.23;;;4.40;;
26620;SDS011;14253;44.840;10.444;2023-03-23T04:41:24;8.40;;;4.68;;
26620;SDS011;14253;44.840;10.444;2023-03-23T04:44:10;7.95;;;4.30;;
26620;SDS011;14253;44.840;10.444;2023-03-23T04:46:43;6.15;;;4.38;;
26620;SDS011;14253;44.840;10.444;2023-03-23T04:49:17;8.23;;;4.38;;
26620;SDS011;14253;44.840;10.444;2023-03-23T04:51:48;13.20;;;5.72;;
26620;SDS011;14253;44.840;10.444;2023-03-23T04:54:23;9.43;;;5.38;;
26620;SDS011;14253;44.840;10.444;2023-03-23T04:56:54;9.52;;;5.65;;
26620;SDS011;14253;44.840;10.444;2023-03-23T04:59:20;11.68;;;5.00;;
26620;SDS011;14253;44.840;10.444;2023-03-23T05:02:06;8.77;;;4.78;;
26620;SDS011;14253;44.840;10.444;2023-03-23T05:04:33;10.32;;;4.80;;
26620;SDS011;14253;44.840;10.444;2023-03-23T05:07:10;8.15;;;4.90;;
26620;SDS011;14253;44.840;10.444;2023-03-23T05:09:57;8.43;;;4.82;;
26620;SDS011;14253;44.840;10.444;2023-03-23T05:12:32;9.48;;;4.88;;
26620;SDS011;14253;44.840;10.444;2023-03-23T05:15:03;10.27;;;5.85;;
26620;SDS011;14253;44.840;10.444;2023-03-23T05:17:33;9.27;;;6.10;;
26620;SDS011;14253;44.840;10.444;2023-03-23T05:20:02;14.00;;;6.20;;
26620;SDS011;14253;44.840;10.444;2023-03-23T05:22:42;18.08;;;9.75;;
26620;SDS011;14253;44.840;10.444;2023-03-23T05:25:11;25.38;;;13.00;;
26620;SDS011;14253;44.840;10.444;2023-03-23T05:27:42;22.40;;;12.70;;
26620;SDS011;14253;44.840;10.444;2023-03-23T05:30:31;32.13;;;15.05;;
26620;SDS011;14253;44.840;10.444;2023-03-23T05:32:57;26.35;;;14.95;;
26620;SDS011;14253;44.840;10.444;2023-03-23T05:35:57;33.10;;;16.33;;
26620;SDS011;14253;44.840;10.444;2023-03-23T05:38:30;31.92;;;16.63;;
26620;SDS011;14253;44.840;10.444;2023-03-23T05:41:00;28.13;;;15.27;;
26620;SDS011;14253;44.840;10.444;2023-03-23T05:43:33;31.65;;;15.35;;
26620;SDS011;14253;44.840;10.444;2023-03-23T05:46:11;31.95;;;16.42;;
26620;SDS011;14253;44.840;10.444;2023-03-23T05:48:38;36.03;;;16.45;;
26620;SDS011;14253;44.840;10.444;2023-03-23T05:51:09;29.48;;;15.90;;
26620;SDS011;14253;44.840;10.444;2023-03-23T05:53:39;31.77;;;16.48;;
26620;SDS011;14253;44.840;10.444;2023-03-23T05:56:05;29.27;;;16.63;;
26620;SDS011;14253;44.840;10.444;2023-03-23T05:58:55;32.28;;;16.25;;
26620;SDS011;14253;44.840;10.444;2023-03-23T06:01:22;30.75;;;15.82;;
26620;SDS011;14253;44.840;10.444;2023-03-23T06:03:48;28.58;;;16.08;;
26620;SDS011;14253;44.840;10.444;2023-03-23T06:06:20;27.27;;;15.55;;
26620;SDS011;14253;44.840;10.444;2023-03-23T06:08:53;31.23;;;16.38;;
26620;SDS011;14253;44.840;10.444;2023-03-23T06:11:33;32.17;;;16.38;;
26620;SDS011;14253;44.840;10.444;2023-03-23T06:14:25;30.58;;;16.17;;
26620;SDS011;14253;44.840;10.444;2023-03-23T06:16:51;30.58;;;17.10;;
26620;SDS011;14253;44.840;10.444;2023-03-23T06:19:17;27.42;;;16.80;;
26620;SDS011;14253;44.840;10.444;2023-03-23T06:22:00;36.30;;;19.77;;
26620;SDS011;14253;44.840;10.444;2023-03-23T06:24:42;33.50;;;18.42;;
26620;SDS011;14253;44.840;10.444;2023-03-23T06:27:10;35.10;;;20.17;;
26620;SDS011;14253;44.840;10.444;2023-03-23T06:29:36;52.55;;;31.35;;
26620;SDS011;14253;44.840;10.444;2023-03-23T06:32:05;193.73;;;114.93;;
26620;SDS011;14253;44.840;10.444;2023-03-23T06:34:31;92.68;;;58.28;;
26620;SDS011;14253;44.840;10.444;2023-03-23T06:37:27;31.15;;;19.60;;
26620;SDS011;14253;44.840;10.444;2023-03-23T06:42:52;22.50;;;14.35;;
26620;SDS011;14253;44.840;10.444;2023-03-23T06:45:43;25.57;;;15.50;;
26620;SDS011;14253;44.840;10.444;2023-03-23T06:48:32;25.15;;;15.55;;
26620;SDS011;14253;44.840;10.444;2023-03-23T06:50:59;22.20;;;14.60;;
26620;SDS011;14253;44.840;10.444;2023-03-23T06:53:26;25.00;;;14.73;;
26620;SDS011;14253;44.840;10.444;2023-03-23T06:55:55;26.98;;;15.15;;
26620;SDS011;14253;44.840;10.444;2023-03-23T06:58:22;22.80;;;13.55;;
26620;SDS011;14253;44.840;10.444;2023-03-23T07:00:53;25.88;;;14.15;;
26620;SDS011;14253;44.840;10.444;2023-03-23T07:03:23;25.75;;;14.15;;
26620;SDS011;14253;44.840;10.444;2023-03-23T07:05:52;19.73;;;12.95;;
26620;SDS011;14253;44.840;10.444;2023-03-23T07:08:20;20.75;;;12.00;;
26620;SDS011;14253;44.840;10.444;2023-03-23T07:10:53;20.35;;;13.00;;
26620;SDS011;14253;44.840;10.444;2023-03-23T07:13:24;20.92;;;13.13;;
26620;SDS011;14253;44.840;10.444;2023-03-23T07:15:55;20.95;;;13.38;;
26620;SDS011;14253;44.840;10.444;2023-03-23T07:18:22;24.42;;;13.52;;
26620;SDS011;14253;44.840;10.444;2023-03-23T07:20:52;22.13;;;13.43;;
26620;SDS011;14253;44.840;10.444;2023-03-23T07:23:21;20.17;;;12.93;;
26620;SDS011;14253;44.840;10.444;2023-03-23T07:25:55;24.73;;;13.20;;
26620;SDS011;14253;44.840;10.444;2023-03-23T07:28:28;22.90;;;13.73;;
26620;SDS011;14253;44.840;10.444;2023-03-23T07:31:00;25.02;;;14.70;;
26620;SDS011;14253;44.840;10.444;2023-03-23T07:33:26;23.13;;;13.77;;
26620;SDS011;14253;44.840;10.444;2023-03-23T07:35:55;23.80;;;13.88;;
26620;SDS011;14253;44.840;10.444;2023-03-23T07:38:23;24.45;;;14.10;;
26620;SDS011;14253;44.840;10.444;2023-03-23T07:40:51;23.90;;;15.43;;
26620;SDS011;14253;44.840;10.444;2023-03-23T07:43:18;21.00;;;14.13;;
26620;SDS011;14253;44.840;10.444;2023-03-23T07:46:03;20.98;;;13.75;;
26620;SDS011;14253;44.840;10.444;2023-03-23T07:48:45;25.13;;;14.85;;
26620;SDS011;14253;44.840;10.444;2023-03-23T07:51:12;25.63;;;13.90;;
26620;SDS011;14253;44.840;10.444;2023-03-23T07:53:39;24.52;;;15.38;;
26620;SDS011;14253;44.840;10.444;2023-03-23T07:56:33;27.30;;;15.70;;
26620;SDS011;14253;44.840;10.444;2023-03-23T07:59:16;29.60;;;15.63;;
26620;SDS011;14253;44.840;10.444;2023-03-23T08:01:43;26.00;;;15.18;;
26620;SDS011;14253;44.840;10.444;2023-03-23T08:04:41;27.40;;;15.95;;
26620;SDS011;14253;44.840;10.444;2023-03-23T08:07:25;27.40;;;16.48;;
26620;SDS011;14253;44.840;10.444;2023-03-23T08:10:11;27.48;;;16.50;;
26620;SDS011;14253;44.840;10.444;2023-03-23T08:12:58;23.80;;;15.43;;
26620;SDS011;14253;44.840;10.444;2023-03-23T08:15:54;24.25;;;15.15;;
26620;SDS011;14253;44.840;10.444;2023-03-23T08:18:38;25.08;;;15.00;;
26620;SDS011;14253;44.840;10.444;2023-03-23T08:21:24;22.73;;;14.65;;
26620;SDS011;14253;44.840;10.444;2023-03-23T08:24:18;22.77;;;13.73;;
26620;SDS011;14253;44.840;10.444;2023-03-23T08:26:46;24.83;;;15.13;;
26620;SDS011;14253;44.840;10.444;2023-03-23T08:29:12;26.67;;;14.07;;
26620;SDS011;14253;44.840;10.444;2023-03-23T08:32:05;26.88;;;15.07;;
26620;SDS011;14253;44.840;10.444;2023-03-23T08:34:52;21.73;;;13.73;;
26620;SDS011;14253;44.840;10.444;2023-03-23T08:37:21;21.60;;;13.88;;
26620;SDS011;14253;44.840;10.444;2023-03-23T08:39:56;23.38;;;13.98;;
26620;SDS011;14253;44.840;10.444;2023-03-23T08:42:46;23.17;;;14.95;;
26620;SDS011;14253;44.840;10.444;2023-03-23T08:45:32;23.08;;;13.70;;
26620;SDS011;14253;44.840;10.444;2023-03-23T08:48:24;23.92;;;14.77;;
26620;SDS011;14253;44.840;10.444;2023-03-23T08:51:19;24.40;;;14.38;;
26620;SDS011;14253;44.840;10.444;2023-03-23T08:54:04;21.25;;;13.75;;
26620;SDS011;14253;44.840;10.444;2023-03-23T08:56:50;21.05;;;14.50;;
26620;SDS011;14253;44.840;10.444;2023-03-23T08:59:46;22.67;;;15.68;;
26620;SDS011;14253;44.840;10.444;2023-03-23T09:02:32;18.92;;;13.38;;
26620;SDS011;14253;44.840;10.444;2023-03-23T09:05:13;19.48;;;12.77;;
26620;SDS011;14253;44.840;10.444;2023-03-23T09:10:40;21.30;;;13.07;;
26620;SDS011;14253;44.840;10.444;2023-03-23T09:13:07;20.52;;;13.63;;
26620;SDS011;14253;44.840;10.444;2023-03-23T09:15:33;22.42;;;14.20;;
26620;SDS011;14253;44.840;10.444;2023-03-23T09:17:59;18.42;;;13.43;;
26620;SDS011;14253;44.840;10.444;2023-03-23T09:20:27;29.05;;;14.77;;
26620;SDS011;14253;44.840;10.444;2023-03-23T09:22:55;23.08;;;13.98;;
26620;SDS011;14253;44.840;10.444;2023-03-23T09:25:23;19.30;;;13.93;;
26620;SDS011;14253;44.840;10.444;2023-03-23T09:27:52;21.95;;;14.40;;
26620;SDS011;14253;44.840;10.444;2023-03-23T09:30:23;22.67;;;14.07;;
26620;SDS011;14253;44.840;10.444;2023-03-23T09:32:51;19.90;;;13.27;;
26620;SDS011;14253;44.840;10.444;2023-03-23T09:35:19;20.92;;;13.68;;
26620;SDS011;14253;44.840;10.444;2023-03-23T09:37:47;25.77;;;12.80;;
26620;SDS011;14253;44.840;10.444;2023-03-23T09:40:19;22.63;;;13.98;;
26620;SDS011;14253;44.840;10.444;2023-03-23T09:42:54;21.92;;;13.75;;
26620;SDS011;14253;44.840;10.444;2023-03-23T09:45:39;19.48;;;13.52;;
26620;SDS011;14253;44.840;10.444;2023-03-23T09:48:28;22.27;;;12.98;;
26620;SDS011;14253;44.840;10.444;2023-03-23T09:53:56;20.33;;;14.68;;
26620;SDS011;14253;44.840;10.444;2023-03-23T09:56:30;23.38;;;14.48;;
26620;SDS011;14253;44.840;10.444;2023-03-23T10:01:48;18.25;;;11.55;;
26620;SDS011;14253;44.840;10.444;2023-03-23T10:07:09;18.20;;;11.15;;
26620;SDS011;14253;44.840;10.444;2023-03-23T10:09:39;19.02;;;11.73;;
26620;SDS011;14253;44.840;10.444;2023-03-23T10:17:32;16.50;;;10.75;;
26620;SDS011;14253;44.840;10.444;2023-03-23T10:22:42;15.65;;;9.48;;
26620;SDS011;14253;44.840;10.444;2023-03-23T10:25:21;13.68;;;9.63;;
26620;SDS011;14253;44.840;10.444;2023-03-23T10:30:45;13.30;;;10.00;;
26620;SDS011;14253;44.840;10.444;2023-03-23T10:35:48;13.52;;;9.63;;
26620;SDS011;14253;44.840;10.444;2023-03-23T10:38:38;14.73;;;9.18;;
26620;SDS011;14253;44.840;10.444;2023-03-23T10:41:15;12.32;;;6.93;;
26620;SDS011;14253;44.840;10.444;2023-03-23T10:43:43;12.48;;;6.80;;
26620;SDS011;14253;44.840;10.444;2023-03-23T10:48:59;12.18;;;7.75;;
26620;SDS011;14253;44.840;10.444;2023-03-23T10:51:31;11.38;;;7.43;;
26620;SDS011;14253;44.840;10.444;2023-03-23T10:54:03;11.60;;;7.40;;
26620;SDS011;14253;44.840;10.444;2023-03-23T10:56:35;13.27;;;7.25;;
26620;SDS011;14253;44.840;10.444;2023-03-23T10:59:17;9.43;;;6.40;;
26620;SDS011;14253;44.840;10.444;2023-03-23T11:01:47;8.30;;;5.88;;
26620;SDS011;14253;44.840;10.444;2023-03-23T11:04:16;11.52;;;7.60;;
26620;SDS011;14253;44.840;10.444;2023-03-23T11:06:54;11.30;;;8.35;;
26620;SDS011;14253;44.840;10.444;2023-03-23T11:09:33;12.82;;;6.95;;
26620;SDS011;14253;44.840;10.444;2023-03-23T11:12:04;10.85;;;7.35;;
26620;SDS011;14253;44.840;10.444;2023-03-23T11:14:41;13.15;;;7.45;;
26620;SDS011;14253;44.840;10.444;2023-03-23T11:17:23;11.63;;;8.43;;
26620;SDS011;14253;44.840;10.444;2023-03-23T11:19:51;11.60;;;9.10;;
26620;SDS011;14253;44.840;10.444;2023-03-23T11:22:28;12.93;;;8.57;;
26620;SDS011;14253;44.840;10.444;2023-03-23T11:25:02;18.05;;;9.63;;
26620;SDS011;14253;44.840;10.444;2023-03-23T11:27:30;15.25;;;8.52;;
26620;SDS011;14253;44.840;10.444;2023-03-23T11:30:07;11.60;;;7.35;;
26620;SDS011;14253;44.840;10.444;2023-03-23T11:32:52;10.15;;;7.15;;
26620;SDS011;14253;44.840;10.444;2023-03-23T11:35:21;9.68;;;7.28;;
26620;SDS011;14253;44.840;10.444;2023-03-23T11:37:53;8.98;;;6.75;;
26620;SDS011;14253;44.840;10.444;2023-03-23T11:40:25;9.38;;;7.72;;
26620;SDS011;14253;44.840;10.444;2023-03-23T11:45:34;11.70;;;7.22;;
26620;SDS011;14253;44.840;10.444;2023-03-23T11:50:50;12.63;;;7.18;;
26620;SDS011;14253;44.840;10.444;2023-03-23T11:56:23;11.90;;;8.10;;
26620;SDS011;14253;44.840;10.444;2023-03-23T11:59:25;12.10;;;8.00;;
26620;SDS011;14253;44.840;10.444;2023-03-23T12:07:55;14.38;;;9.23;;
26620;SDS011;14253;44.840;10.444;2023-03-23T12:21:52;12.55;;;9.20;;
26620;SDS011;14253;44.840;10.444;2023-03-23T12:25:04;14.65;;;10.05;;
26620;SDS011;14253;44.840;10.444;2023-03-23T12:41:31;18.13;;;12.02;;
26620;SDS011;14253;44.840;10.444;2023-03-23T12:44:11;15.27;;;11.38;;
26620;SDS011;14253;44.840;10.444;2023-03-23T12:49:29;15.82;;;12.15;;
26620;SDS011;14253;44.840;10.444;2023-03-23T12:52:25;15.13;;;10.70;;
26620;SDS011;14253;44.840;10.444;2023-03-23T12:55:01;13.05;;;10.63;;
26620;SDS011;14253;44.840;10.444;2023-03-23T12:57:41;15.37;;;11.83;;
26620;SDS011;14253;44.840;10.444;2023-03-23T13:00:21;14.15;;;10.85;;
26620;SDS011;14253;44.840;10.444;2023-03-23T13:03:01;17.40;;;10.73;;
26620;SDS011;14253;44.840;10.444;2023-03-23T13:08:06;16.35;;;11.88;;
26620;SDS011;14253;44.840;10.444;2023-03-23T13:10:45;16.60;;;10.70;;
26620;SDS011;14253;44.840;10.444;2023-03-23T13:13:15;14.85;;;10.85;;
26620;SDS011;14253;44.840;10.444;2023-03-23T13:18:38;14.70;;;11.18;;
26620;SDS011;14253;44.840;10.444;2023-03-23T13:21:19;11.20;;;9.10;;
26620;SDS011;14253;44.840;10.444;2023-03-23T13:26:44;12.50;;;9.02;;
26620;SDS011;14253;44.840;10.444;2023-03-23T13:29:19;15.48;;;8.10;;
26620;SDS011;14253;44.840;10.444;2023-03-23T13:32:04;11.00;;;8.15;;
26620;SDS011;14253;44.840;10.444;2023-03-23T13:34:34;11.25;;;8.27;;
26620;SDS011;14253;44.840;10.444;2023-03-23T13:37:05;11.07;;;8.13;;
26620;SDS011;14253;44.840;10.444;2023-03-23T13:39:38;15.93;;;8.52;;
26620;SDS011;14253;44.840;10.444;2023-03-23T13:42:46;11.55;;;8.68;;
26620;SDS011;14253;44.840;10.444;2023-03-23T13:50:44;11.15;;;7.05;;
26620;SDS011;14253;44.840;10.444;2023-03-23T13:53:26;12.23;;;8.52;;
26620;SDS011;14253;44.840;10.444;2023-03-23T13:56:17;11.13;;;8.10;;
26620;SDS011;14253;44.840;10.444;2023-03-23T13:59:05;13.57;;;8.43;;
26620;SDS011;14253;44.840;10.444;2023-03-23T14:01:34;11.10;;;8.02;;
26620;SDS011;14253;44.840;10.444;2023-03-23T14:04:06;12.10;;;8.70;;
26620;SDS011;14253;44.840;10.444;2023-03-23T14:06:35;12.82;;;8.52;;
26620;SDS011;14253;44.840;10.444;2023-03-23T14:12:13;13.30;;;8.18;;
26620;SDS011;14253;44.840;10.444;2023-03-23T14:14:49;12.93;;;7.83;;
26620;SDS011;14253;44.840;10.444;2023-03-23T14:17:31;12.20;;;8.93;;
26620;SDS011;14253;44.840;10.444;2023-03-23T14:19:59;12.50;;;8.38;;
26620;SDS011;14253;44.840;10.444;2023-03-23T14:22:39;16.48;;;9.40;;
26620;SDS011;14253;44.840;10.444;2023-03-23T14:25:12;12.82;;;8.60;;
26620;SDS011;14253;44.840;10.444;2023-03-23T14:27:43;11.57;;;8.38;;
26620;SDS011;14253;44.840;10.444;2023-03-23T14:30:14;12.70;;;8.77;;
26620;SDS011;14253;44.840;10.444;2023-03-23T14:32:41;10.32;;;7.85;;
26620;SDS011;14253;44.840;10.444;2023-03-23T14:35:23;12.23;;;8.52;;
26620;SDS011;14253;44.840;10.444;2023-03-23T14:37:53;12.73;;;8.65;;
26620;SDS011;14253;44.840;10.444;2023-03-23T14:40:20;13.63;;;9.18;;
26620;SDS011;14253;44.840;10.444;2023-03-23T14:42:47;11.68;;;8.57;;
26620;SDS011;14253;44.840;10.444;2023-03-23T14:45:16;14.57;;;9.13;;
26620;SDS011;14253;44.840;10.444;2023-03-23T14:47:48;13.02;;;8.98;;
26620;SDS011;14253;44.840;10.444;2023-03-23T14:53:00;10.60;;;7.80;;
26620;SDS011;14253;44.840;10.444;2023-03-23T14:55:46;13.25;;;9.02;;
26620;SDS011;14253;44.840;10.444;2023-03-23T14:58:14;14.55;;;9.20;;
26620;SDS011;14253;44.840;10.444;2023-03-23T15:01:00;12.95;;;9.52;;
26620;SDS011;14253;44.840;10.444;2023-03-23T15:03:33;11.20;;;8.25;;
26620;SDS011;14253;44.840;10.444;2023-03-23T15:06:04;15.32;;;10.05;;
26620;SDS011;14253;44.840;10.444;2023-03-23T15:08:36;17.73;;;11.20;;
26620;SDS011;14253;44.840;10.444;2023-03-23T15:11:24;17.77;;;12.77;;
26620;SDS011;14253;44.840;10.444;2023-03-23T15:13:57;16.90;;;11.80;;
26620;SDS011;14253;44.840;10.444;2023-03-23T15:16:29;18.02;;;11.88;;
26620;SDS011;14253;44.840;10.444;2023-03-23T15:18:59;18.13;;;11.60;;
26620;SDS011;14253;44.840;10.444;2023-03-23T15:21:30;19.27;;;12.65;;
26620;SDS011;14253;44.840;10.444;2023-03-23T15:24:01;17.58;;;12.48;;
26620;SDS011;14253;44.840;10.444;2023-03-23T15:26:44;19.25;;;13.88;;
26620;SDS011;14253;44.840;10.444;2023-03-23T15:29:11;19.63;;;12.38;;
26620;SDS011;14253;44.840;10.444;2023-03-23T15:31:39;19.45;;;13.57;;
26620;SDS011;14253;44.840;10.444;2023-03-23T15:34:06;19.85;;;13.20;;
26620;SDS011;14253;44.840;10.444;2023-03-23T15:37:02;15.35;;;11.40;;
26620;SDS011;14253;44.840;10.444;2023-03-23T15:39:33;19.40;;;13.25;;
26620;SDS011;14253;44.840;10.444;2023-03-23T15:41:59;21.05;;;13.70;;
26620;SDS011;14253;44.840;10.444;2023-03-23T15:44:31;20.57;;;13.90;;
26620;SDS011;14253;44.840;10.444;2023-03-23T15:47:03;17.73;;;11.73;;
26620;SDS011;14253;44.840;10.444;2023-03-23T15:49:39;19.13;;;13.10;;
26620;SDS011;14253;44.840;10.444;2023-03-23T15:52:07;17.98;;;13.18;;
26620;SDS011;14253;44.840;10.444;2023-03-23T15:54:38;20.10;;;12.98;;
26620;SDS011;14253;44.840;10.444;2023-03-23T15:57:10;21.25;;;12.50;;
26620;SDS011;14253;44.840;10.444;2023-03-23T15:59:36;17.83;;;13.10;;
26620;SDS011;14253;44.840;10.444;2023-03-23T16:02:02;16.83;;;12.30;;
26620;SDS011;14253;44.840;10.444;2023-03-23T16:04:28;20.25;;;12.45;;
26620;SDS011;14253;44.840;10.444;2023-03-23T16:06:55;17.70;;;11.85;;
26620;SDS011;14253;44.840;10.444;2023-03-23T16:09:23;18.67;;;11.10;;
26620;SDS011;14253;44.840;10.444;2023-03-23T16:11:49;20.90;;;12.40;;
26620;SDS011;14253;44.840;10.444;2023-03-23T16:14:15;18.05;;;12.57;;
26620;SDS011;14253;44.840;10.444;2023-03-23T16:16:48;16.23;;;12.00;;
26620;SDS011;14253;44.840;10.444;2023-03-23T16:19:17;17.27;;;11.05;;
26620;SDS011;14253;44.840;10.444;2023-03-23T16:21:45;20.38;;;12.20;;
26620;SDS011;14253;44.840;10.444;2023-03-23T16:24:11;16.30;;;10.65;;
26620;SDS011;14253;44.840;10.444;2023-03-23T16:26:37;16.25;;;11.07;;
26620;SDS011;14253;44.840;10.444;2023-03-23T16:29:09;18.33;;;12.32;;
26620;SDS011;14253;44.840;10.444;2023-03-23T16:31:37;20.00;;;13.88;;
26620;SDS011;14253;44.840;10.444;2023-03-23T16:34:03;25.48;;;12.45;;
26620;SDS011;14253;44.840;10.444;2023-03-23T16:36:29;21.10;;;13.15;;
26620;SDS011;14253;44.840;10.444;2023-03-23T16:38:54;16.55;;;10.95;;
26620;SDS011;14253;44.840;10.444;2023-03-23T16:41:20;20.35;;;12.48;;
26620;SDS011;14253;44.840;10.444;2023-03-23T16:43:46;20.80;;;12.95;;
26620;SDS011;14253;44.840;10.444;2023-03-23T16:46:12;22.55;;;13.05;;
26620;SDS011;14253;44.840;10.444;2023-03-23T16:48:38;19.00;;;11.70;;
26620;SDS011;14253;44.840;10.444;2023-03-23T16:51:04;19.33;;;12.05;;
26620;SDS011;14253;44.840;10.444;2023-03-23T16:53:31;22.00;;;12.02;;
26620;SDS011;14253;44.840;10.444;2023-03-23T16:55:57;18.95;;;11.05;;
26620;SDS011;14253;44.840;10.444;2023-03-23T16:58:23;19.40;;;11.73;;
26620;SDS011;14253;44.840;10.444;2023-03-23T17:00:50;18.65;;;11.15;;
26620;SDS011;14253;44.840;10.444;2023-03-23T17:03:17;20.90;;;11.40;;
26620;SDS011;14253;44.840;10.444;2023-03-23T17:05:43;22.00;;;11.80;;
26620;SDS011;14253;44.840;10.444;2023-03-23T17:08:12;17.90;;;10.40;;